Westview Chinook — VG3278 — position and weather

sailwx.info

Track history (hours):
 
Tides and Currents Weather Stations Pressure Air Temp Water Temp Dewpoint Dewpoint Depression Visibility Wind Speed Wind Dir Waves Ship Positions

Westview Chinook

Last reported at 2014-Nov-26 06:15 UTC. Time now 2014-Nov-26 12:53 UTC.
Position N 49°13' W 122°47'.

Length 16 m; draft 3.5 m.

Type: Towing. MMSI: 316005622.

Date/timePositionNaut miles runAvg speedWind from/ knotsBaromVisibWave heightAir tempDewpointWater temp
2014-Nov-26 06:15N 49°13' W 122°47'3 4.8
2014-Nov-26 05:33N 49°13' W 122°52'3 3.0
2014-Nov-26 04:34N 49°11' W 122°55'2 1.7
2014-Nov-26 03:34N 49°11' W 122°58'4 3.5
2014-Nov-26 02:33N 49°12' W 123°03'0 0.0
2014-Nov-26 01:32N 49°12' W 123°03'3 3.4
2014-Nov-26 00:33N 49°12' W 123°08'9 8.9
2014-Nov-25 23:34N 49°16' W 123°20'10 9.8
2014-Nov-25 22:33N 49°16' W 123°35'10 9.5
2014-Nov-25 21:33N 49°13' W 123°49'4 4.0
2014-Nov-25 20:31N 49°10' W 123°53'6 6.1
2014-Nov-25 19:33N 49°13' W 123°45'8 8.4
2014-Nov-25 18:34N 49°09' W 123°33'8 8.1
2014-Nov-25 17:34N 49°06' W 123°22'7 7.2
2014-Nov-25 16:33N 49°07' W 123°11'6 6.0
2014-Nov-25 15:33N 49°09' W 123°02'6 6.0
2014-Nov-25 14:29N 49°12' W 122°54'1 0.8
2014-Nov-25 13:33N 49°13' W 122°53'4 3.5
2014-Nov-25 12:33N 49°10' W 122°56'1 0.5
2014-Nov-25 11:33N 49°10' W 122°57'7 7.3
2014-Nov-25 10:33N 49°13' W 122°47'4 4.2
2014-Nov-25 09:33N 49°11' W 122°41'3 3.0
2014-Nov-25 08:33N 49°13' W 122°37'3 3.0
2014-Nov-25 07:33N 49°11' W 122°41'1 0.5
2014-Nov-25 06:33N 49°11' W 122°41'0 0.0
2014-Nov-25 05:33N 49°11' W 122°41'1 1.5
2014-Nov-25 04:32N 49°11' W 122°44'2 1.6
2014-Nov-25 03:32N 49°13' W 122°44'5 5.3
2014-Nov-25 02:33N 49°13' W 122°52'0 0.1
2014-Nov-25 01:32N 49°13' W 122°52'4 4.5
2014-Nov-25 00:33N 49°13' W 122°46'4 3.7
2014-Nov-24 23:33N 49°11' W 122°41'4 1.5
2014-Nov-24 20:33N 49°14' W 122°46'3 1.5
2014-Nov-24 18:34N 49°13' W 122°50'3 2.9
2014-Nov-24 17:30N 49°12' W 122°55'0 0.0
2014-Nov-24 16:32N 49°12' W 122°55'2 1.8
2014-Nov-24 15:33N 49°10' W 122°56'4 4.4
2014-Nov-24 14:33N 49°09' W 123°02'6 5.9
2014-Nov-24 13:33N 49°07' W 123°10'5 4.6
2014-Nov-24 12:33N 49°06' W 123°17'4 3.6
2014-Nov-24 11:33N 49°06' W 123°23'4 4.1
2014-Nov-24 10:33N 49°08' W 123°29'4 4.5
2014-Nov-24 09:33N 49°10' W 123°35'5 5.4
2014-Nov-24 08:33N 49°12' W 123°43'6 5.6
2014-Nov-24 07:33N 49°12' W 123°51'3 3.5
2014-Nov-24 06:33N 49°09' W 123°53'5 4.6
2014-Nov-24 05:33N 49°13' W 123°49'9 9.2
2014-Nov-24 04:33N 49°15' W 123°35'1010.0
2014-Nov-24 03:33N 49°17' W 123°20'10 9.6
2014-Nov-24 02:33N 49°18' W 123°06'3 2.6
2014-Nov-24 01:33N 49°18' W 123°02'0 0.0
2014-Nov-24 00:33N 49°18' W 123°02'0 0.0
2014-Nov-23 23:33N 49°18' W 123°02'0 0.0
2014-Nov-23 22:33N 49°18' W 123°02'0 0.0
2014-Nov-23 21:33N 49°18' W 123°02'0 0.0
2014-Nov-23 20:33N 49°18' W 123°02'0 0.0
2014-Nov-23 19:33N 49°18' W 123°02'0 0.0
2014-Nov-23 18:33N 49°18' W 123°02'0 0.0
2014-Nov-23 17:33N 49°18' W 123°02'0 0.0
2014-Nov-23 16:33N 49°18' W 123°02'0 0.0
2014-Nov-23 15:33N 49°18' W 123°02'0 0.0
2014-Nov-23 14:33N 49°18' W 123°02'0 0.0
2014-Nov-23 13:33N 49°18' W 123°02'0 0.0
2014-Nov-23 12:33N 49°18' W 123°02'0 0.0
2014-Nov-23 11:33N 49°18' W 123°02'0 0.0
2014-Nov-23 10:33N 49°18' W 123°02'0 0.0
2014-Nov-23 09:33N 49°18' W 123°02'0 0.0
2014-Nov-23 08:33N 49°18' W 123°02'0 0.0
2014-Nov-23 07:33N 49°18' W 123°02'0 0.0
2014-Nov-23 06:33N 49°18' W 123°02'0 0.0
2014-Nov-23 05:33N 49°18' W 123°02'0 0.0
2014-Nov-23 04:33N 49°18' W 123°02'0 0.0
2014-Nov-23 03:33N 49°18' W 123°02'3 3.2
2014-Nov-23 02:33N 49°18' W 123°07'4 4.5
2014-Nov-23 01:33N 49°17' W 123°13'3 3.0
2014-Nov-23 00:33N 49°15' W 123°15'4 4.2
2014-Nov-22 23:33N 49°13' W 123°09'3 3.3
2014-Nov-22 22:33N 49°12' W 123°04'0 0.0
2014-Nov-22 21:33N 49°12' W 123°04'0 0.0
2014-Nov-22 20:33N 49°12' W 123°04'0 0.0
2014-Nov-22 19:33N 49°12' W 123°04'0 0.0
2014-Nov-22 18:33N 49°12' W 123°04'4 4.5
2014-Nov-22 17:33N 49°11' W 122°58'0 0.1
2014-Nov-22 16:33N 49°11' W 122°58'1 1.1
2014-Nov-22 15:32N 49°11' W 122°59'6 6.1
2014-Nov-22 14:34N 49°12' W 123°08'0 0.0
2014-Nov-22 13:34N 49°12' W 123°08'1 1.2
2014-Nov-22 12:34N 49°13' W 123°10'9 9.3
2014-Nov-22 11:34N 49°15' W 123°23'10 9.6
2014-Nov-22 10:34N 49°14' W 123°38'10 9.5
2014-Nov-22 09:33N 49°12' W 123°52'3 2.9
2014-Nov-22 08:33N 49°09' W 123°53'5 5.2
2014-Nov-22 07:33N 49°13' W 123°47'7 7.2
2014-Nov-22 06:34N 49°11' W 123°36'7 7.0
2014-Nov-22 05:34N 49°08' W 123°26'9 8.9
2014-Nov-22 04:33N 49°08' W 123°13'7 7.2
2014-Nov-22 03:34N 49°09' W 123°02'6 6.1
2014-Nov-22 02:32N 49°12' W 122°54'5 2.0
2014-Nov-22 00:14N 49°13' W 122°47'6 8.9
2014-Nov-21 23:33N 49°12' W 122°56'7 7.5
2014-Nov-21 22:33N 49°12' W 123°08'0 0.3
2014-Nov-21 21:33N 49°12' W 123°08'0 0.0
2014-Nov-21 20:34N 49°12' W 123°08'0 0.0
2014-Nov-21 19:33N 49°12' W 123°08'5 4.7
2014-Nov-21 18:34N 49°12' W 123°01'9 8.6
2014-Nov-21 17:33N 49°13' W 122°48'9 9.2
2014-Nov-21 16:34N 49°11' W 122°34'0 0.2
2014-Nov-21 13:31N 49°11' W 122°35'6 6.2
2014-Nov-21 12:33N 49°13' W 122°44'7 7.1
2014-Nov-21 11:33N 49°12' W 122°54'3 2.8
2014-Nov-21 10:34N 49°10' W 122°57'1 1.2
2014-Nov-21 09:34N 49°10' W 122°56'7 7.3
2014-Nov-21 08:34N 49°13' W 122°45'3 3.0
2014-Nov-21 07:33N 49°11' W 122°42'3 2.6
2014-Nov-21 06:32N 49°13' W 122°44'2 2.4
2014-Nov-21 05:33N 49°11' W 122°43'5 5.1
2014-Nov-21 04:34N 49°13' W 122°50'1 0.9
2014-Nov-21 03:34N 49°13' W 122°48'2 2.1
2014-Nov-21 02:33N 49°13' W 122°45'5 5.1
2014-Nov-21 01:32N 49°13' W 122°53'4 4.6
2014-Nov-21 00:33N 49°11' W 122°60'6 5.8
2014-Nov-20 23:33N 49°12' W 123°08'1 1.0
2014-Nov-20 22:34N 49°12' W 123°07'8 7.6
2014-Nov-20 21:33N 49°12' W 122°55'0 0.4
2014-Nov-20 20:33N 49°12' W 122°54'3 2.5
2014-Nov-20 19:33N 49°10' W 122°57'5 5.3
2014-Nov-20 18:34N 49°13' W 122°50'6 5.9
2014-Nov-20 17:32N 49°11' W 122°42'1 1.4
2014-Nov-20 16:33N 49°11' W 122°44'0 0.0
2014-Nov-20 15:33N 49°11' W 122°44'6 6.1
2014-Nov-20 14:33N 49°13' W 122°52'5 5.2
2014-Nov-20 13:33N 49°09' W 122°57'5 4.7
2014-Nov-20 12:33N 49°13' W 122°53'6 5.9
2014-Nov-20 11:33N 49°12' W 122°44'3 2.9
2014-Nov-20 10:33N 49°12' W 122°39'2 1.4
2014-Nov-20 09:14N 49°11' W 122°41'3 5.2
2014-Nov-20 08:33N 49°13' W 122°46'5 5.0
2014-Nov-20 07:33N 49°13' W 122°54'4 4.2
2014-Nov-20 06:33N 49°10' W 122°58'5 5.3
2014-Nov-20 05:33N 49°07' W 123°05'3 3.4
2014-Nov-20 04:33N 49°09' W 123°01'8 7.8
2014-Nov-20 03:33N 49°13' W 122°51'7 6.9
2014-Nov-20 02:33N 49°12' W 122°40'5 4.1
2014-Nov-20 01:25N 49°13' W 122°47'1 1.4
2014-Nov-20 00:33N 49°13' W 122°49'5 5.4
2014-Nov-19 23:33N 49°11' W 122°41'3 2.9
2014-Nov-19 22:33N 49°13' W 122°45'7 7.1
2014-Nov-19 21:33N 49°11' W 122°55'2 2.3
2014-Nov-19 20:33N 49°09' W 122°58'1 1.3
2014-Nov-19 19:34N 49°10' W 122°56'1 1.2
2014-Nov-19 18:34N 49°09' W 122°58'0 0.0
2014-Nov-19 17:33N 49°09' W 122°58'2 1.6
2014-Nov-19 16:33N 49°10' W 122°56'6 5.9
2014-Nov-19 15:33N 49°13' W 122°47'3 2.7
2014-Nov-19 14:33N 49°13' W 122°51'4 4.1
2014-Nov-19 13:33N 49°10' W 122°56'3 2.7
2014-Nov-19 12:33N 49°13' W 122°53'6 6.2
2014-Nov-19 11:33N 49°13' W 122°44'1 1.1
2014-Nov-19 10:31N 49°12' W 122°43'6 6.3
2014-Nov-19 09:33N 49°13' W 122°52'1 1.2
2014-Nov-19 08:33N 49°13' W 122°51'6 6.3
2014-Nov-19 07:33N 49°11' W 122°41'1 1.3
2014-Nov-19 06:33N 49°12' W 122°40'1 0.8
2014-Nov-19 05:31N 49°11' W 122°41'0 0.0
2014-Nov-19 04:32N 49°11' W 122°41'2 2.4
2014-Nov-19 03:33N 49°12' W 122°44'1 0.6
2014-Nov-19 02:31N 49°13' W 122°44'0 0.0
2014-Nov-18 23:25N 49°13' W 122°45'2 2.5
2014-Nov-18 22:33N 49°11' W 122°43'0 0.4
2014-Nov-18 21:33N 49°11' W 122°42'1 1.1
2014-Nov-18 20:33N 49°11' W 122°41'1 0.7
2014-Nov-18 19:32N 49°11' W 122°42'4 4.0
2014-Nov-18 18:33N 49°15' W 122°44'1 0.8
2014-Nov-18 17:32N 49°14' W 122°45'1 0.8
2014-Nov-18 16:33N 49°15' W 122°44'3 2.9
2014-Nov-18 15:33N 49°13' W 122°48'0 0.3
2014-Nov-18 14:33N 49°13' W 122°48'5 4.6
2014-Nov-18 13:33N 49°11' W 122°41'6 6.4
2014-Nov-18 12:33N 49°13' W 122°50'6 6.1
2014-Nov-18 11:33N 49°09' W 122°58'5 4.6
2014-Nov-18 10:33N 49°13' W 122°53'0 0.5
2014-Nov-18 09:33N 49°13' W 122°54'4 4.1
2014-Nov-18 08:33N 49°09' W 122°58'5 5.1
2014-Nov-18 07:33N 49°07' W 123°05'2 1.8
2014-Nov-18 06:33N 49°09' W 123°03'8 7.5
2014-Nov-18 05:33N 49°13' W 122°53'8 7.8
2014-Nov-18 04:33N 49°12' W 122°41'5 5.3
2014-Nov-18 03:33N 49°11' W 122°33'2 0.2
2014-Nov-17 16:33N 49°10' W 122°31'6 5.7
2014-Nov-17 15:33N 49°12' W 122°39'4 4.0
2014-Nov-17 14:33N 49°13' W 122°45'2 0.2
2014-Nov-17 00:33N 49°12' W 122°42'7 2.4
2014-Nov-16 21:33N 49°10' W 122°31'6 6.3
2014-Nov-16 20:33N 49°12' W 122°40'8 7.6
2014-Nov-16 19:33N 49°13' W 122°52'7 6.7
2014-Nov-16 18:33N 49°09' W 123°00'6 6.3
2014-Nov-16 17:33N 49°07' W 123°09'7 6.9
2014-Nov-16 16:33N 49°07' W 123°19'10 9.6
2014-Nov-16 15:33N 49°17' W 123°17'9 9.2
2014-Nov-16 14:33N 49°18' W 123°03'1 1.1
2014-Nov-16 13:33N 49°18' W 123°02'3 2.9
2014-Nov-16 12:33N 49°19' W 123°06'2 2.4
2014-Nov-16 11:33N 49°19' W 123°10'6 5.5
2014-Nov-16 10:33N 49°16' W 123°17'4 4.4
2014-Nov-16 09:34N 49°13' W 123°12'4 3.7
2014-Nov-16 08:33N 49°12' W 123°07'2 1.8
2014-Nov-16 07:33N 49°12' W 123°04'0 0.0
2014-Nov-16 06:34N 49°12' W 123°04'  
Track history (hours):
 
Tides and Currents Weather Stations Pressure Air Temp Water Temp Dewpoint Dewpoint Depression Visibility Wind Speed Wind Dir Waves Ship Positions

Westview Chinook

Last reported at 2014-Nov-26 06:15 UTC. Time now 2014-Nov-26 12:53 UTC.
Position N 49°13' W 122°47'.

Length 16 m; draft 3.5 m.

Type: Towing. MMSI: 316005622.

Date/timePositionNaut miles runAvg speedWind from/ knotsBaromVisibWave heightAir tempDewpointWater temp
2014-Nov-26 06:15N 49°13' W 122°47'3 4.8
2014-Nov-26 05:33N 49°13' W 122°52'3 3.0
2014-Nov-26 04:34N 49°11' W 122°55'2 1.7
2014-Nov-26 03:34N 49°11' W 122°58'4 3.5
2014-Nov-26 02:33N 49°12' W 123°03'0 0.0
2014-Nov-26 01:32N 49°12' W 123°03'3 3.4
2014-Nov-26 00:33N 49°12' W 123°08'9 8.9
2014-Nov-25 23:34N 49°16' W 123°20'10 9.8
2014-Nov-25 22:33N 49°16' W 123°35'10 9.5
2014-Nov-25 21:33N 49°13' W 123°49'4 4.0
2014-Nov-25 20:31N 49°10' W 123°53'6 6.1
2014-Nov-25 19:33N 49°13' W 123°45'8 8.4
2014-Nov-25 18:34N 49°09' W 123°33'8 8.1
2014-Nov-25 17:34N 49°06' W 123°22'7 7.2
2014-Nov-25 16:33N 49°07' W 123°11'6 6.0
2014-Nov-25 15:33N 49°09' W 123°02'6 6.0
2014-Nov-25 14:29N 49°12' W 122°54'1 0.8
2014-Nov-25 13:33N 49°13' W 122°53'4 3.5
2014-Nov-25 12:33N 49°10' W 122°56'1 0.5
2014-Nov-25 11:33N 49°10' W 122°57'7 7.3
2014-Nov-25 10:33N 49°13' W 122°47'4 4.2
2014-Nov-25 09:33N 49°11' W 122°41'3 3.0
2014-Nov-25 08:33N 49°13' W 122°37'3 3.0
2014-Nov-25 07:33N 49°11' W 122°41'1 0.5
2014-Nov-25 06:33N 49°11' W 122°41'0 0.0
2014-Nov-25 05:33N 49°11' W 122°41'1 1.5
2014-Nov-25 04:32N 49°11' W 122°44'2 1.6
2014-Nov-25 03:32N 49°13' W 122°44'5 5.3
2014-Nov-25 02:33N 49°13' W 122°52'0 0.1
2014-Nov-25 01:32N 49°13' W 122°52'4 4.5
2014-Nov-25 00:33N 49°13' W 122°46'4 3.7
2014-Nov-24 23:33N 49°11' W 122°41'4 1.5
2014-Nov-24 20:33N 49°14' W 122°46'3 1.5
2014-Nov-24 18:34N 49°13' W 122°50'3 2.9
2014-Nov-24 17:30N 49°12' W 122°55'0 0.0
2014-Nov-24 16:32N 49°12' W 122°55'2 1.8
2014-Nov-24 15:33N 49°10' W 122°56'4 4.4
2014-Nov-24 14:33N 49°09' W 123°02'6 5.9
2014-Nov-24 13:33N 49°07' W 123°10'5 4.6
2014-Nov-24 12:33N 49°06' W 123°17'4 3.6
2014-Nov-24 11:33N 49°06' W 123°23'4 4.1
2014-Nov-24 10:33N 49°08' W 123°29'4 4.5
2014-Nov-24 09:33N 49°10' W 123°35'5 5.4
2014-Nov-24 08:33N 49°12' W 123°43'6 5.6
2014-Nov-24 07:33N 49°12' W 123°51'3 3.5
2014-Nov-24 06:33N 49°09' W 123°53'5 4.6
2014-Nov-24 05:33N 49°13' W 123°49'9 9.2
2014-Nov-24 04:33N 49°15' W 123°35'1010.0
2014-Nov-24 03:33N 49°17' W 123°20'10 9.6
2014-Nov-24 02:33N 49°18' W 123°06'3 2.6
2014-Nov-24 01:33N 49°18' W 123°02'0 0.0
2014-Nov-24 00:33N 49°18' W 123°02'0 0.0
2014-Nov-23 23:33N 49°18' W 123°02'0 0.0
2014-Nov-23 22:33N 49°18' W 123°02'0 0.0
2014-Nov-23 21:33N 49°18' W 123°02'0 0.0
2014-Nov-23 20:33N 49°18' W 123°02'0 0.0
2014-Nov-23 19:33N 49°18' W 123°02'0 0.0
2014-Nov-23 18:33N 49°18' W 123°02'0 0.0
2014-Nov-23 17:33N 49°18' W 123°02'0 0.0
2014-Nov-23 16:33N 49°18' W 123°02'0 0.0
2014-Nov-23 15:33N 49°18' W 123°02'0 0.0
2014-Nov-23 14:33N 49°18' W 123°02'0 0.0
2014-Nov-23 13:33N 49°18' W 123°02'0 0.0
2014-Nov-23 12:33N 49°18' W 123°02'0 0.0
2014-Nov-23 11:33N 49°18' W 123°02'0 0.0
2014-Nov-23 10:33N 49°18' W 123°02'0 0.0
2014-Nov-23 09:33N 49°18' W 123°02'0 0.0
2014-Nov-23 08:33N 49°18' W 123°02'0 0.0
2014-Nov-23 07:33N 49°18' W 123°02'0 0.0
2014-Nov-23 06:33N 49°18' W 123°02'0 0.0
2014-Nov-23 05:33N 49°18' W 123°02'0 0.0
2014-Nov-23 04:33N 49°18' W 123°02'0 0.0
2014-Nov-23 03:33N 49°18' W 123°02'3 3.2
2014-Nov-23 02:33N 49°18' W 123°07'4 4.5
2014-Nov-23 01:33N 49°17' W 123°13'3 3.0
2014-Nov-23 00:33N 49°15' W 123°15'4 4.2
2014-Nov-22 23:33N 49°13' W 123°09'3 3.3
2014-Nov-22 22:33N 49°12' W 123°04'0 0.0
2014-Nov-22 21:33N 49°12' W 123°04'0 0.0
2014-Nov-22 20:33N 49°12' W 123°04'0 0.0
2014-Nov-22 19:33N 49°12' W 123°04'0 0.0
2014-Nov-22 18:33N 49°12' W 123°04'4 4.5
2014-Nov-22 17:33N 49°11' W 122°58'0 0.1
2014-Nov-22 16:33N 49°11' W 122°58'1 1.1
2014-Nov-22 15:32N 49°11' W 122°59'6 6.1
2014-Nov-22 14:34N 49°12' W 123°08'0 0.0
2014-Nov-22 13:34N 49°12' W 123°08'1 1.2
2014-Nov-22 12:34N 49°13' W 123°10'9 9.3
2014-Nov-22 11:34N 49°15' W 123°23'10 9.6
2014-Nov-22 10:34N 49°14' W 123°38'10 9.5
2014-Nov-22 09:33N 49°12' W 123°52'3 2.9
2014-Nov-22 08:33N 49°09' W 123°53'5 5.2
2014-Nov-22 07:33N 49°13' W 123°47'7 7.2
2014-Nov-22 06:34N 49°11' W 123°36'7 7.0
2014-Nov-22 05:34N 49°08' W 123°26'9 8.9
2014-Nov-22 04:33N 49°08' W 123°13'7 7.2
2014-Nov-22 03:34N 49°09' W 123°02'6 6.1
2014-Nov-22 02:32N 49°12' W 122°54'5 2.0
2014-Nov-22 00:14N 49°13' W 122°47'6 8.9
2014-Nov-21 23:33N 49°12' W 122°56'7 7.5
2014-Nov-21 22:33N 49°12' W 123°08'0 0.3
2014-Nov-21 21:33N 49°12' W 123°08'0 0.0
2014-Nov-21 20:34N 49°12' W 123°08'0 0.0
2014-Nov-21 19:33N 49°12' W 123°08'5 4.7
2014-Nov-21 18:34N 49°12' W 123°01'9 8.6
2014-Nov-21 17:33N 49°13' W 122°48'9 9.2
2014-Nov-21 16:34N 49°11' W 122°34'0 0.2
2014-Nov-21 13:31N 49°11' W 122°35'6 6.2
2014-Nov-21 12:33N 49°13' W 122°44'7 7.1
2014-Nov-21 11:33N 49°12' W 122°54'3 2.8
2014-Nov-21 10:34N 49°10' W 122°57'1 1.2
2014-Nov-21 09:34N 49°10' W 122°56'7 7.3
2014-Nov-21 08:34N 49°13' W 122°45'3 3.0
2014-Nov-21 07:33N 49°11' W 122°42'3 2.6
2014-Nov-21 06:32N 49°13' W 122°44'2 2.4
2014-Nov-21 05:33N 49°11' W 122°43'5 5.1
2014-Nov-21 04:34N 49°13' W 122°50'1 0.9
2014-Nov-21 03:34N 49°13' W 122°48'2 2.1
2014-Nov-21 02:33N 49°13' W 122°45'5 5.1
2014-Nov-21 01:32N 49°13' W 122°53'4 4.6
2014-Nov-21 00:33N 49°11' W 122°60'6 5.8
2014-Nov-20 23:33N 49°12' W 123°08'1 1.0
2014-Nov-20 22:34N 49°12' W 123°07'8 7.6
2014-Nov-20 21:33N 49°12' W 122°55'0 0.4
2014-Nov-20 20:33N 49°12' W 122°54'3 2.5
2014-Nov-20 19:33N 49°10' W 122°57'5 5.3
2014-Nov-20 18:34N 49°13' W 122°50'6 5.9
2014-Nov-20 17:32N 49°11' W 122°42'1 1.4
2014-Nov-20 16:33N 49°11' W 122°44'0 0.0
2014-Nov-20 15:33N 49°11' W 122°44'6 6.1
2014-Nov-20 14:33N 49°13' W 122°52'5 5.2
2014-Nov-20 13:33N 49°09' W 122°57'5 4.7
2014-Nov-20 12:33N 49°13' W 122°53'6 5.9
2014-Nov-20 11:33N 49°12' W 122°44'3 2.9
2014-Nov-20 10:33N 49°12' W 122°39'2 1.4
2014-Nov-20 09:14N 49°11' W 122°41'3 5.2
2014-Nov-20 08:33N 49°13' W 122°46'5 5.0
2014-Nov-20 07:33N 49°13' W 122°54'4 4.2
2014-Nov-20 06:33N 49°10' W 122°58'5 5.3
2014-Nov-20 05:33N 49°07' W 123°05'3 3.4
2014-Nov-20 04:33N 49°09' W 123°01'8 7.8
2014-Nov-20 03:33N 49°13' W 122°51'7 6.9
2014-Nov-20 02:33N 49°12' W 122°40'5 4.1
2014-Nov-20 01:25N 49°13' W 122°47'1 1.4
2014-Nov-20 00:33N 49°13' W 122°49'5 5.4
2014-Nov-19 23:33N 49°11' W 122°41'3 2.9
2014-Nov-19 22:33N 49°13' W 122°45'7 7.1
2014-Nov-19 21:33N 49°11' W 122°55'2 2.3
2014-Nov-19 20:33N 49°09' W 122°58'1 1.3
2014-Nov-19 19:34N 49°10' W 122°56'1 1.2
2014-Nov-19 18:34N 49°09' W 122°58'0 0.0
2014-Nov-19 17:33N 49°09' W 122°58'2 1.6
2014-Nov-19 16:33N 49°10' W 122°56'6 5.9
2014-Nov-19 15:33N 49°13' W 122°47'3 2.7
2014-Nov-19 14:33N 49°13' W 122°51'4 4.1
2014-Nov-19 13:33N 49°10' W 122°56'3 2.7
2014-Nov-19 12:33N 49°13' W 122°53'6 6.2
2014-Nov-19 11:33N 49°13' W 122°44'1 1.1
2014-Nov-19 10:31N 49°12' W 122°43'6 6.3
2014-Nov-19 09:33N 49°13' W 122°52'1 1.2
2014-Nov-19 08:33N 49°13' W 122°51'6 6.3
2014-Nov-19 07:33N 49°11' W 122°41'1 1.3
2014-Nov-19 06:33N 49°12' W 122°40'1 0.8
2014-Nov-19 05:31N 49°11' W 122°41'0 0.0
2014-Nov-19 04:32N 49°11' W 122°41'2 2.4
2014-Nov-19 03:33N 49°12' W 122°44'1 0.6
2014-Nov-19 02:31N 49°13' W 122°44'0 0.0
2014-Nov-18 23:25N 49°13' W 122°45'2 2.5
2014-Nov-18 22:33N 49°11' W 122°43'0 0.4
2014-Nov-18 21:33N 49°11' W 122°42'1 1.1
2014-Nov-18 20:33N 49°11' W 122°41'1 0.7
2014-Nov-18 19:32N 49°11' W 122°42'4 4.0
2014-Nov-18 18:33N 49°15' W 122°44'1 0.8
2014-Nov-18 17:32N 49°14' W 122°45'1 0.8
2014-Nov-18 16:33N 49°15' W 122°44'3 2.9
2014-Nov-18 15:33N 49°13' W 122°48'0 0.3
2014-Nov-18 14:33N 49°13' W 122°48'5 4.6
2014-Nov-18 13:33N 49°11' W 122°41'6 6.4
2014-Nov-18 12:33N 49°13' W 122°50'6 6.1
2014-Nov-18 11:33N 49°09' W 122°58'5 4.6
2014-Nov-18 10:33N 49°13' W 122°53'0 0.5
2014-Nov-18 09:33N 49°13' W 122°54'4 4.1
2014-Nov-18 08:33N 49°09' W 122°58'5 5.1
2014-Nov-18 07:33N 49°07' W 123°05'2 1.8
2014-Nov-18 06:33N 49°09' W 123°03'8 7.5
2014-Nov-18 05:33N 49°13' W 122°53'8 7.8
2014-Nov-18 04:33N 49°12' W 122°41'5 5.3
2014-Nov-18 03:33N 49°11' W 122°33'2 0.2
2014-Nov-17 16:33N 49°10' W 122°31'6 5.7
2014-Nov-17 15:33N 49°12' W 122°39'4 4.0
2014-Nov-17 14:33N 49°13' W 122°45'2 0.2
2014-Nov-17 00:33N 49°12' W 122°42'7 2.4
2014-Nov-16 21:33N 49°10' W 122°31'6 6.3
2014-Nov-16 20:33N 49°12' W 122°40'8 7.6
2014-Nov-16 19:33N 49°13' W 122°52'7 6.7
2014-Nov-16 18:33N 49°09' W 123°00'6 6.3
2014-Nov-16 17:33N 49°07' W 123°09'7 6.9
2014-Nov-16 16:33N 49°07' W 123°19'10 9.6
2014-Nov-16 15:33N 49°17' W 123°17'9 9.2
2014-Nov-16 14:33N 49°18' W 123°03'1 1.1
2014-Nov-16 13:33N 49°18' W 123°02'3 2.9
2014-Nov-16 12:33N 49°19' W 123°06'2 2.4
2014-Nov-16 11:33N 49°19' W 123°10'6 5.5
2014-Nov-16 10:33N 49°16' W 123°17'4 4.4
2014-Nov-16 09:34N 49°13' W 123°12'4 3.7
2014-Nov-16 08:33N 49°12' W 123°07'2 1.8
2014-Nov-16 07:33N 49°12' W 123°04'0 0.0
2014-Nov-16 06:34N 49°12' W 123°04'  

Dump ship's entire track history